createdAt,value
2018-04-22T00:00:09.676Z,20.13
2018-04-22T00:02:37.980Z,20.12
2018-04-22T00:05:06.300Z,20.14
2018-04-22T00:07:34.629Z,20.08
2018-04-22T00:10:03.742Z,20.15
2018-04-22T00:12:32.828Z,20.11
2018-04-22T00:15:01.170Z,19.99
2018-04-22T00:17:29.525Z,19.99
2018-04-22T00:19:57.974Z,19.99
2018-04-22T00:22:27.185Z,20.05
2018-04-22T00:24:55.489Z,19.96
2018-04-22T00:27:23.814Z,19.87
2018-04-22T00:29:52.369Z,19.86
2018-04-22T00:32:20.875Z,19.76
2018-04-22T00:34:49.256Z,19.67
2018-04-22T00:37:18.346Z,19.73
2018-04-22T00:39:48.823Z,19.72
2018-04-22T00:42:17.207Z,19.65
2018-04-22T00:44:45.686Z,19.63
2018-04-22T00:47:13.981Z,19.61
2018-04-22T00:49:42.316Z,19.59
2018-04-22T00:52:10.621Z,19.67
2018-04-22T00:54:38.966Z,19.70
2018-04-22T00:57:08.097Z,19.66
2018-04-22T00:59:36.522Z,19.61
2018-04-22T01:02:05.046Z,19.59
2018-04-22T01:04:33.521Z,19.65
2018-04-22T01:07:03.008Z,19.64
2018-04-22T01:09:32.086Z,19.62
2018-04-22T01:12:01.362Z,19.61
2018-04-22T01:14:29.856Z,19.58
2018-04-22T01:16:58.185Z,19.54
2018-04-22T01:19:26.465Z,19.43
2018-04-22T01:21:54.976Z,19.36
2018-04-22T01:24:23.409Z,19.32
2018-04-22T01:26:51.886Z,19.25
2018-04-22T01:29:20.999Z,19.17
2018-04-22T01:31:49.335Z,19.13
2018-04-22T01:34:18.452Z,19.22
2018-04-22T01:36:47.616Z,19.12
2018-04-22T01:39:16.000Z,19.05
2018-04-22T01:41:44.307Z,18.97
2018-04-22T01:44:13.526Z,18.93
2018-04-22T01:46:41.877Z,18.97
2018-04-22T01:49:11.087Z,18.98
2018-04-22T01:51:40.423Z,18.99
2018-04-22T01:54:08.757Z,18.98
2018-04-22T01:56:37.895Z,18.98
2018-04-22T01:59:06.284Z,18.93
2018-04-22T02:01:34.631Z,18.98
2018-04-22T02:04:03.204Z,18.81
2018-04-22T02:06:31.530Z,18.81
2018-04-22T02:08:59.831Z,18.87
2018-04-22T02:11:29.055Z,18.80
2018-04-22T02:13:58.340Z,18.82
2018-04-22T02:16:27.444Z,18.83
2018-04-22T02:18:56.596Z,18.82
2018-04-22T02:21:24.975Z,18.84
2018-04-22T02:23:54.013Z,18.88
2018-04-22T02:26:23.221Z,18.76
2018-04-22T02:28:51.609Z,18.57
2018-04-22T02:31:19.950Z,18.55
2018-04-22T02:33:48.228Z,18.57
2018-04-22T02:36:16.503Z,18.58
2018-04-22T02:38:45.634Z,18.60
2018-04-22T02:41:13.950Z,18.61
2018-04-22T02:43:42.227Z,18.63
2018-04-22T02:46:11.669Z,18.66
2018-04-22T02:48:40.828Z,18.66
2018-04-22T02:51:09.200Z,18.69
2018-04-22T02:53:37.518Z,18.68
2018-04-22T02:56:06.654Z,18.75
2018-04-22T02:58:35.049Z,18.77
2018-04-22T03:01:03.466Z,18.66
2018-04-22T03:03:32.791Z,18.52
2018-04-22T03:06:01.234Z,18.48
2018-04-22T03:08:29.555Z,18.47
2018-04-22T03:10:57.825Z,18.51
2018-04-22T03:13:26.205Z,18.53
2018-04-22T03:15:54.480Z,18.58
2018-04-22T03:18:23.201Z,18.42
2018-04-22T03:20:51.558Z,18.35
2018-04-22T03:23:19.985Z,18.37
2018-04-22T03:25:48.312Z,18.35
2018-04-22T03:28:16.817Z,18.24
2018-04-22T03:30:45.486Z,18.21
2018-04-22T03:33:13.756Z,18.24
2018-04-22T03:35:42.170Z,18.35
2018-04-22T03:38:10.587Z,18.38
2018-04-22T03:40:39.696Z,18.36
2018-04-22T03:43:08.093Z,18.31
2018-04-22T03:45:36.562Z,18.33
2018-04-22T03:48:06.717Z,18.39
2018-04-22T03:50:35.446Z,18.37
2018-04-22T03:53:04.557Z,18.44
2018-04-22T03:55:32.982Z,18.47
2018-04-22T03:58:01.618Z,18.47
2018-04-22T04:00:30.768Z,18.43
2018-04-22T04:02:59.062Z,18.44
2018-04-22T04:05:28.188Z,18.47
2018-04-22T04:07:57.253Z,18.44
2018-04-22T04:10:25.581Z,18.44
2018-04-22T04:12:54.109Z,18.46
2018-04-22T04:15:22.572Z,18.44
2018-04-22T04:21:37.097Z,18.28
2018-04-22T04:27:45.927Z,18.21
2018-04-22T04:30:14.235Z,18.21
2018-04-22T04:32:42.502Z,18.19
2018-04-22T04:35:11.646Z,18.18
2018-04-22T04:37:39.978Z,18.16
2018-04-22T04:40:09.032Z,18.17
2018-04-22T04:42:37.556Z,18.14
2018-04-22T04:45:05.858Z,18.18
2018-04-22T04:47:34.291Z,18.22
2018-04-22T04:50:03.498Z,18.23
2018-04-22T04:52:33.781Z,18.24
2018-04-22T04:55:02.317Z,18.23
2018-04-22T04:57:30.773Z,18.24
2018-04-22T05:00:01.872Z,18.31
2018-04-22T05:02:30.207Z,18.29
2018-04-22T05:04:59.343Z,18.30
2018-04-22T05:07:27.666Z,18.34
2018-04-22T05:09:56.726Z,18.33
2018-04-22T05:12:25.108Z,18.36
2018-04-22T05:14:53.548Z,18.35
2018-04-22T05:17:21.917Z,18.26
2018-04-22T05:19:51.219Z,18.23
2018-04-22T05:22:19.538Z,18.19
2018-04-22T05:24:48.123Z,18.19
2018-04-22T05:27:16.618Z,18.14
2018-04-22T05:29:44.933Z,18.11
2018-04-22T05:32:14.026Z,18.11
2018-04-22T05:34:43.206Z,18.10
2018-04-22T05:37:12.305Z,18.11
2018-04-22T05:39:41.487Z,18.20
2018-04-22T05:42:10.013Z,18.32
2018-04-22T05:44:38.309Z,18.34
2018-04-22T05:47:06.746Z,18.42
2018-04-22T05:49:36.072Z,18.49
2018-04-22T05:52:04.373Z,18.57
2018-04-22T05:54:32.772Z,18.62
2018-04-22T05:57:01.342Z,18.68
2018-04-22T05:59:29.680Z,18.86
2018-04-22T06:01:58.829Z,18.87
2018-04-22T06:04:27.113Z,18.89
2018-04-22T06:06:55.461Z,18.95
2018-04-22T06:09:23.785Z,18.96
2018-04-22T06:11:52.545Z,19.00
2018-04-22T06:14:20.868Z,19.10
2018-04-22T06:16:50.129Z,19.15
2018-04-22T06:19:18.432Z,19.22
2018-04-22T06:21:47.544Z,19.25
2018-04-22T06:24:15.826Z,19.32
2018-04-22T06:26:44.169Z,19.35
2018-04-22T06:29:13.603Z,19.43
2018-04-22T06:31:42.802Z,19.52
2018-04-22T06:34:11.379Z,19.50
2018-04-22T06:36:40.419Z,19.55
2018-04-22T06:39:08.787Z,19.54
2018-04-22T06:41:37.468Z,19.78
2018-04-22T06:44:05.917Z,20.01
2018-04-22T06:46:34.975Z,20.32
2018-04-22T06:49:01.937Z,20.69
2018-04-22T06:51:29.637Z,21.05
2018-04-22T06:53:56.389Z,21.41
2018-04-22T06:56:23.223Z,21.50
2018-04-22T06:58:50.076Z,21.48
2018-04-22T07:01:17.017Z,21.63
2018-04-22T07:03:43.754Z,21.97
2018-04-22T07:06:10.616Z,22.11
2018-04-22T07:08:37.429Z,22.16
2018-04-22T07:11:04.321Z,22.16
2018-04-22T07:13:31.226Z,22.31
2018-04-22T07:15:58.114Z,22.37
2018-04-22T07:18:25.025Z,22.51
2018-04-22T07:20:52.004Z,22.70
2018-04-22T07:23:18.823Z,23.14
2018-04-22T07:25:45.809Z,23.37
2018-04-22T07:28:13.463Z,23.36
2018-04-22T07:30:40.325Z,23.49
2018-04-22T07:33:07.910Z,23.68
2018-04-22T07:35:35.928Z,23.60
2018-04-22T07:38:03.544Z,23.61
2018-04-22T07:40:30.432Z,23.66
2018-04-22T07:42:57.208Z,23.78
2018-04-22T07:45:24.923Z,23.67
2018-04-22T07:47:51.783Z,23.67
2018-04-22T07:50:18.652Z,23.71
2018-04-22T07:52:46.240Z,23.61
2018-04-22T07:55:13.123Z,23.88
2018-04-22T08:00:13.394Z,24.02
2018-04-22T08:02:41.327Z,23.92
2018-04-22T08:05:08.234Z,23.95
2018-04-22T08:07:35.179Z,24.09
2018-04-22T08:10:01.947Z,24.08
2018-04-22T08:12:30.443Z,24.01
2018-04-22T08:14:57.289Z,24.03
2018-04-22T08:17:24.120Z,24.22
2018-04-22T08:19:51.291Z,24.34
2018-04-22T08:22:18.905Z,24.41
2018-04-22T08:24:45.733Z,24.41
2018-04-22T08:27:12.614Z,24.45
2018-04-22T08:29:39.738Z,24.55
2018-04-22T08:32:06.639Z,24.68
2018-04-22T08:34:34.219Z,24.82
2018-04-22T08:37:01.225Z,24.94
2018-04-22T08:39:28.118Z,25.01
2018-04-22T08:41:55.385Z,25.10
2018-04-22T08:44:22.360Z,25.20
2018-04-22T08:46:49.303Z,25.21
2018-04-22T08:49:16.428Z,25.26
2018-04-22T08:51:44.280Z,25.27
2018-04-22T08:54:11.357Z,25.44
2018-04-22T08:56:38.389Z,25.51
2018-04-22T08:59:05.429Z,25.47
2018-04-22T09:01:32.454Z,25.39
2018-04-22T09:03:59.239Z,25.40
2018-04-22T09:06:26.068Z,25.37
2018-04-22T09:08:54.113Z,25.35
2018-04-22T09:11:20.985Z,25.32
2018-04-22T09:13:47.881Z,25.28
2018-04-22T09:16:15.030Z,25.35
2018-04-22T09:18:41.849Z,25.32
2018-04-22T09:21:09.478Z,25.31
2018-04-22T09:23:37.267Z,25.37
2018-04-22T09:26:04.548Z,25.40
2018-04-22T09:28:31.731Z,25.40
2018-04-22T09:30:58.561Z,25.44
2018-04-22T09:33:25.792Z,25.42
2018-04-22T09:35:52.959Z,25.42
2018-04-22T09:38:20.028Z,25.42
2018-04-22T09:40:47.268Z,25.55
2018-04-22T09:43:14.493Z,25.60
2018-04-22T09:45:41.376Z,25.71
2018-04-22T09:48:08.427Z,25.70
2018-04-22T09:50:35.263Z,25.67
2018-04-22T09:53:03.069Z,25.68
2018-04-22T09:55:30.003Z,25.74
2018-04-22T09:57:57.030Z,25.57
2018-04-22T10:00:29.782Z,25.69
2018-04-22T10:02:58.336Z,25.77
2018-04-22T10:05:25.129Z,25.75
2018-04-22T10:07:52.707Z,25.93
2018-04-22T10:10:19.884Z,26.02
2018-04-22T10:12:46.994Z,26.12
2018-04-22T10:15:14.010Z,26.20
2018-04-22T10:17:41.768Z,26.27
2018-04-22T10:20:08.870Z,26.28
2018-04-22T10:22:35.782Z,26.18
2018-04-22T10:25:02.788Z,26.25
2018-04-22T10:27:29.953Z,26.29
2018-04-22T10:29:57.842Z,26.47
2018-04-22T10:32:24.796Z,26.54
2018-04-22T10:34:51.933Z,26.59
2018-04-22T10:37:19.428Z,26.67
2018-04-22T10:39:46.959Z,26.69
2018-04-22T10:42:13.916Z,26.72
2018-04-22T10:44:40.940Z,26.66
2018-04-22T10:47:08.854Z,26.72
2018-04-22T10:49:36.049Z,26.84
2018-04-22T10:52:03.997Z,26.92
2018-04-22T10:54:30.820Z,26.91
2018-04-22T10:56:57.963Z,26.97
2018-04-22T10:59:24.728Z,26.85
2018-04-22T11:01:51.532Z,26.72
2018-04-22T11:04:18.347Z,26.85
2018-04-22T11:06:45.298Z,27.03
2018-04-22T11:09:12.234Z,27.02
2018-04-22T11:11:39.374Z,27.04
2018-04-22T11:14:06.449Z,27.07
2018-04-22T11:16:33.486Z,27.12
2018-04-22T11:19:00.378Z,27.10
2018-04-22T11:21:27.786Z,27.11
2018-04-22T11:23:54.891Z,27.27
2018-04-22T11:26:22.635Z,27.46
2018-04-22T11:28:49.675Z,27.64
2018-04-22T11:31:16.791Z,27.83
2018-04-22T11:33:43.815Z,27.74
2018-04-22T11:36:10.654Z,27.76
2018-04-22T11:38:37.471Z,27.95
2018-04-22T11:41:05.143Z,28.11
2018-04-22T11:43:32.105Z,28.17
2018-04-22T11:45:58.905Z,28.37
2018-04-22T11:48:26.672Z,28.60
2018-04-22T11:50:54.207Z,28.80
2018-04-22T11:53:21.303Z,28.92
2018-04-22T11:55:48.083Z,28.89
2018-04-22T11:58:15.038Z,29.06
2018-04-22T12:00:42.070Z,28.83
2018-04-22T12:03:09.194Z,28.55
2018-04-22T12:05:35.952Z,28.27
2018-04-22T12:08:03.605Z,28.07
2018-04-22T12:10:30.473Z,28.02
2018-04-22T12:12:57.245Z,28.02
2018-04-22T12:15:24.858Z,27.94
2018-04-22T12:17:52.080Z,28.03
2018-04-22T12:20:18.899Z,28.18
2018-04-22T12:22:45.744Z,28.49
2018-04-22T12:25:12.685Z,28.37
2018-04-22T12:27:39.661Z,28.47
2018-04-22T12:30:06.639Z,28.58
2018-04-22T12:32:33.629Z,28.63
2018-04-22T12:35:00.480Z,28.70
2018-04-22T12:37:27.422Z,28.82
2018-04-22T12:39:54.380Z,29.05
2018-04-22T12:42:21.436Z,29.31
2018-04-22T12:44:48.276Z,29.62
2018-04-22T12:47:16.295Z,29.92
2018-04-22T12:49:44.016Z,30.06
2018-04-22T12:52:10.850Z,29.98
2018-04-22T12:54:39.348Z,29.79
2018-04-22T12:57:06.250Z,29.65
2018-04-22T12:59:33.154Z,29.54
2018-04-22T13:02:00.811Z,29.31
2018-04-22T13:04:28.381Z,29.09
2018-04-22T13:06:56.072Z,28.89
2018-04-22T13:09:23.045Z,28.76
2018-04-22T13:11:50.042Z,28.68
2018-04-22T13:14:16.940Z,28.61
2018-04-22T13:16:43.732Z,28.47
2018-04-22T13:19:10.792Z,28.17
2018-04-22T13:21:37.606Z,28.11
2018-04-22T13:24:04.351Z,28.19
2018-04-22T13:26:31.196Z,28.20
2018-04-22T13:28:58.076Z,28.12
2018-04-22T13:31:25.067Z,27.83
2018-04-22T13:33:52.605Z,27.75
2018-04-22T13:36:19.409Z,27.57
2018-04-22T13:38:46.389Z,27.31
2018-04-22T13:41:13.249Z,27.27
2018-04-22T13:43:40.867Z,27.12
2018-04-22T13:46:07.745Z,27.13
2018-04-22T13:48:35.402Z,26.99
2018-04-22T13:51:02.965Z,26.95
2018-04-22T13:53:30.566Z,26.80
2018-04-22T13:55:57.575Z,26.86
2018-04-22T13:58:24.476Z,26.71
2018-04-22T14:00:51.390Z,26.62
2018-04-22T14:03:18.230Z,26.57
2018-04-22T14:05:45.050Z,26.43
2018-04-22T14:08:12.221Z,26.37
2018-04-22T14:10:39.013Z,26.18
2018-04-22T14:13:06.602Z,26.26
2018-04-22T14:15:33.590Z,26.21
2018-04-22T14:18:00.508Z,25.31
2018-04-22T14:20:27.478Z,24.42
2018-04-22T14:22:54.405Z,24.46
2018-04-22T14:25:21.370Z,24.63
2018-04-22T14:27:49.106Z,24.50
2018-04-22T14:30:16.038Z,24.50
2018-04-22T14:32:42.989Z,24.60
2018-04-22T14:35:10.027Z,24.70
2018-04-22T14:37:36.991Z,24.59
2018-04-22T14:40:03.887Z,24.61
2018-04-22T14:42:30.929Z,24.85
2018-04-22T14:45:16.129Z,25.06
2018-04-22T14:47:43.110Z,25.34
2018-04-22T14:50:10.038Z,25.75
2018-04-22T14:52:36.824Z,26.19
2018-04-22T14:55:04.352Z,26.45
2018-04-22T14:57:31.609Z,26.67
2018-04-22T14:59:59.183Z,26.72
2018-04-22T15:02:26.943Z,26.74
2018-04-22T15:04:54.668Z,26.66
2018-04-22T15:07:21.588Z,26.55
2018-04-22T15:09:49.451Z,26.56
2018-04-22T15:12:16.302Z,26.59
2018-04-22T15:14:43.256Z,26.62
2018-04-22T15:17:10.144Z,26.71
2018-04-22T15:19:37.783Z,26.73
2018-04-22T15:22:04.800Z,26.69
2018-04-22T15:24:31.641Z,26.63
2018-04-22T15:26:58.712Z,26.59
2018-04-22T15:29:25.909Z,26.54
2018-04-22T15:31:52.805Z,26.57
2018-04-22T15:34:19.798Z,26.69
2018-04-22T15:36:46.661Z,27.07
2018-04-22T15:39:13.895Z,27.89
2018-04-22T15:41:40.705Z,28.39
2018-04-22T15:44:08.505Z,28.06
2018-04-22T15:46:35.650Z,27.70
2018-04-22T15:49:02.691Z,27.50
2018-04-22T15:51:29.855Z,27.70
2018-04-22T15:53:56.857Z,28.11
2018-04-22T15:56:24.776Z,28.28
2018-04-22T15:58:51.703Z,28.13
2018-04-22T16:01:18.645Z,28.01
2018-04-22T16:03:45.550Z,27.84
2018-04-22T16:06:13.525Z,27.24
2018-04-22T16:08:41.128Z,26.79
2018-04-22T16:11:08.059Z,26.78
2018-04-22T16:13:36.050Z,27.00
2018-04-22T16:16:02.898Z,28.16
2018-04-22T16:18:29.859Z,29.79
2018-04-22T16:20:56.772Z,31.09
2018-04-22T16:23:23.833Z,31.54
2018-04-22T16:25:57.910Z,31.97
2018-04-22T16:28:25.191Z,32.04
2018-04-22T16:30:52.046Z,31.82
2018-04-22T16:33:18.958Z,31.18
2018-04-22T16:35:46.322Z,30.68
2018-04-22T16:38:13.139Z,30.06
2018-04-22T16:40:40.108Z,29.03
2018-04-22T16:43:07.095Z,28.17
2018-04-22T16:45:34.805Z,28.31
2018-04-22T16:48:01.712Z,29.23
2018-04-22T16:50:28.880Z,30.43
2018-04-22T16:52:55.817Z,31.71
2018-04-22T16:55:23.070Z,32.59
2018-04-22T16:57:51.049Z,33.05
2018-04-22T17:00:17.854Z,33.07
2018-04-22T17:02:44.936Z,33.11
2018-04-22T17:05:11.881Z,32.91
2018-04-22T17:07:38.706Z,32.97
2018-04-22T17:10:05.650Z,32.96
2018-04-22T17:12:32.605Z,32.74
2018-04-22T17:14:59.407Z,32.43
2018-04-22T17:17:27.020Z,31.81
2018-04-22T17:19:53.952Z,30.91
2018-04-22T17:22:20.824Z,29.90
2018-04-22T17:24:47.686Z,28.99
2018-04-22T17:27:15.455Z,28.21
2018-04-22T17:29:42.986Z,27.70
2018-04-22T17:32:09.886Z,27.37
2018-04-22T17:34:37.031Z,27.20
2018-04-22T17:37:03.840Z,27.00
2018-04-22T17:39:31.430Z,26.75
2018-04-22T17:41:58.300Z,26.59
2018-04-22T17:44:25.115Z,26.51
2018-04-22T17:46:52.211Z,26.39
2018-04-22T17:49:19.975Z,26.31
2018-04-22T17:51:46.780Z,26.24
2018-04-22T17:54:13.717Z,26.16
2018-04-22T17:56:40.648Z,25.98
2018-04-22T17:59:07.697Z,25.83
2018-04-22T18:01:41.494Z,25.75
2018-04-22T18:04:08.488Z,25.53
2018-04-22T18:06:35.296Z,25.47
2018-04-22T18:09:02.145Z,25.18
2018-04-22T18:11:29.689Z,25.06
2018-04-22T18:13:57.012Z,24.95
2018-04-22T18:16:23.910Z,24.87
2018-04-22T18:18:51.103Z,24.91
2018-04-22T18:21:18.041Z,24.89
2018-04-22T18:23:45.027Z,24.83
2018-04-22T18:26:12.160Z,24.77
2018-04-22T18:28:39.162Z,24.71
2018-04-22T18:31:06.745Z,24.60
2018-04-22T18:33:33.658Z,24.54
2018-04-22T18:36:01.255Z,24.44
2018-04-22T18:38:28.088Z,24.35
2018-04-22T18:40:54.978Z,24.34
2018-04-22T18:43:21.918Z,24.31
2018-04-22T18:45:48.791Z,24.34
2018-04-22T18:48:16.546Z,24.20
2018-04-22T18:50:44.591Z,24.11
2018-04-22T18:53:11.558Z,24.03
2018-04-22T18:55:39.591Z,23.92
2018-04-22T18:58:06.413Z,23.74
2018-04-22T19:00:33.332Z,23.80
2018-04-22T19:03:00.304Z,23.68
2018-04-22T19:05:27.121Z,23.71
2018-04-22T19:07:53.869Z,23.47
2018-04-22T19:10:20.784Z,23.33
2018-04-22T19:12:48.477Z,23.35
2018-04-22T19:15:15.372Z,23.08
2018-04-22T19:17:42.198Z,23.05
2018-04-22T19:20:09.030Z,22.99
2018-04-22T19:22:35.832Z,23.13
2018-04-22T19:25:02.835Z,23.16
2018-04-22T19:27:29.659Z,23.37
2018-04-22T19:29:56.667Z,23.67
2018-04-22T19:32:23.671Z,23.77
2018-04-22T19:34:50.570Z,23.93
2018-04-22T19:37:17.337Z,24.09
2018-04-22T19:39:44.285Z,24.19
2018-04-22T19:42:11.220Z,24.26
2018-04-22T19:44:38.092Z,24.11
2018-04-22T19:47:05.755Z,23.94
2018-04-22T19:49:33.554Z,23.80
2018-04-22T19:52:00.368Z,23.67
2018-04-22T19:54:27.877Z,23.58
2018-04-22T19:56:54.770Z,23.53
2018-04-22T19:59:21.736Z,23.48
2018-04-22T20:01:48.740Z,23.44
2018-04-22T20:04:16.391Z,23.36
2018-04-22T20:06:44.095Z,23.21
2018-04-22T20:09:10.894Z,23.10
2018-04-22T20:11:37.832Z,23.01
2018-04-22T20:14:04.661Z,22.90
2018-04-22T20:16:31.446Z,22.84
2018-04-22T20:18:58.300Z,22.79
2018-04-22T20:21:25.108Z,22.73
2018-04-22T20:23:52.641Z,22.65
2018-04-22T20:26:19.553Z,22.61
2018-04-22T20:28:46.397Z,22.52
2018-04-22T20:31:13.363Z,22.22
2018-04-22T20:33:40.327Z,22.14
2018-04-22T20:36:07.099Z,22.11
2018-04-22T20:38:33.882Z,22.15
2018-04-22T20:41:00.690Z,22.06
2018-04-22T20:43:27.511Z,21.78
2018-04-22T20:45:55.095Z,21.46
2018-04-22T20:48:22.004Z,21.47
2018-04-22T20:50:49.834Z,21.58
2018-04-22T20:53:16.747Z,21.64
2018-04-22T20:55:43.931Z,21.75
2018-04-22T20:58:10.858Z,21.72
2018-04-22T21:00:37.636Z,21.73
2018-04-22T21:03:12.131Z,21.76
2018-04-22T21:05:38.973Z,21.80
2018-04-22T21:08:06.544Z,21.78
2018-04-22T21:10:34.236Z,21.81
2018-04-22T21:13:01.117Z,21.84
2018-04-22T21:15:28.060Z,21.82
2018-04-22T21:17:54.957Z,21.78
2018-04-22T21:20:22.499Z,21.78
2018-04-22T21:22:50.112Z,21.70
2018-04-22T21:25:16.888Z,21.70
2018-04-22T21:27:43.715Z,21.67
2018-04-22T21:30:10.506Z,21.63
2018-04-22T21:32:37.469Z,21.65
2018-04-22T21:35:04.277Z,21.60
2018-04-22T21:37:31.936Z,21.55
2018-04-22T21:39:59.586Z,21.51
2018-04-22T21:42:27.208Z,21.48
2018-04-22T21:44:54.098Z,21.44
2018-04-22T21:47:21.633Z,21.38
2018-04-22T21:49:49.390Z,21.30
2018-04-22T21:52:16.253Z,21.27
2018-04-22T21:54:44.216Z,21.26
2018-04-22T21:57:11.020Z,21.20
2018-04-22T21:59:37.773Z,21.20
2018-04-22T22:02:05.089Z,21.20
2018-04-22T22:04:31.903Z,21.20
2018-04-22T22:06:59.461Z,21.18
2018-04-22T22:09:27.050Z,21.15
2018-04-22T22:11:54.820Z,21.13
2018-04-22T22:14:21.713Z,21.10
2018-04-22T22:16:48.403Z,21.10
2018-04-22T22:19:15.589Z,20.93
2018-04-22T22:21:42.358Z,21.05
2018-04-22T22:24:10.212Z,20.95
2018-04-22T22:26:38.017Z,20.93
2018-04-22T22:29:04.893Z,20.78
2018-04-22T22:31:31.653Z,20.79
2018-04-22T22:33:58.448Z,20.76
2018-04-22T22:36:25.217Z,20.75
2018-04-22T22:38:51.968Z,20.71
2018-04-22T22:41:20.310Z,20.71
2018-04-22T22:43:47.082Z,20.75
2018-04-22T22:46:15.521Z,20.78
2018-04-22T22:48:42.334Z,20.73
2018-04-22T22:51:09.327Z,20.72
2018-04-22T22:53:36.291Z,20.73
2018-04-22T22:56:03.864Z,20.69
2018-04-22T22:58:31.456Z,20.53
2018-04-22T23:00:59.528Z,20.60
2018-04-22T23:03:26.407Z,20.62
2018-04-22T23:05:53.326Z,20.56
2018-04-22T23:08:21.132Z,20.54
2018-04-22T23:10:47.999Z,20.56
2018-04-22T23:13:14.946Z,20.59
2018-04-22T23:15:42.493Z,20.56
2018-04-22T23:18:10.039Z,20.51
2018-04-22T23:20:36.856Z,20.47
2018-04-22T23:23:03.895Z,20.41
2018-04-22T23:25:31.058Z,20.40
2018-04-22T23:27:57.752Z,20.37
2018-04-22T23:30:24.698Z,20.36
2018-04-22T23:32:51.441Z,20.21
2018-04-22T23:35:18.241Z,19.87
2018-04-22T23:37:44.927Z,19.88
2018-04-22T23:40:11.789Z,19.72
2018-04-22T23:42:38.522Z,19.81
2018-04-22T23:45:05.308Z,19.59
2018-04-22T23:47:32.828Z,19.47
2018-04-22T23:49:59.966Z,19.36
2018-04-22T23:52:26.967Z,19.62
2018-04-22T23:54:54.441Z,19.81
2018-04-22T23:57:21.352Z,19.88
2018-04-22T23:59:48.236Z,19.96
